createdAt,value
2018-07-15T00:00:38.608Z,41.73
2018-07-15T00:02:31.616Z,41.35
2018-07-15T00:03:31.666Z,41.54
2018-07-15T00:05:24.670Z,40.20
2018-07-15T00:06:24.724Z,40.77
2018-07-15T00:08:17.717Z,40.02
2018-07-15T00:09:17.787Z,40.58
2018-07-15T00:11:10.781Z,41.54
2018-07-15T00:12:10.841Z,39.72
2018-07-15T00:14:03.835Z,37.99
2018-07-15T00:15:03.900Z,36.46
2018-07-15T00:16:56.905Z,29.45
2018-07-15T00:17:56.961Z,28.97
2018-07-15T00:19:49.972Z,28.49
2018-07-15T00:20:50.025Z,29.93
2018-07-15T00:22:43.029Z,30.89
2018-07-15T00:23:43.083Z,30.70
2018-07-15T00:25:36.105Z,28.68
2018-07-15T00:26:36.151Z,28.39
2018-07-15T00:28:29.144Z,31.46
2018-07-15T00:29:29.209Z,32.14
2018-07-15T00:31:22.207Z,32.04
2018-07-15T00:32:22.266Z,32.14
2018-07-15T00:34:15.258Z,32.71
2018-07-15T00:35:15.322Z,32.71
2018-07-15T00:37:08.321Z,32.71
2018-07-15T00:38:08.381Z,32.90
2018-07-15T00:40:01.373Z,33.39
2018-07-15T00:41:01.440Z,33.48
2018-07-15T00:42:54.441Z,33.19
2018-07-15T00:43:54.521Z,32.81
2018-07-15T00:45:47.494Z,32.90
2018-07-15T00:46:47.558Z,32.52
2018-07-15T00:48:40.568Z,33.39
2018-07-15T00:49:40.622Z,32.98
2018-07-15T00:51:33.621Z,32.71
2018-07-15T00:52:33.678Z,32.90
2018-07-15T00:54:26.671Z,32.51
2018-07-15T00:55:26.737Z,32.71
2018-07-15T00:57:19.735Z,32.12
2018-07-15T00:58:19.793Z,30.78
2018-07-15T01:00:12.791Z,32.03
2018-07-15T01:01:12.853Z,32.03
2018-07-15T01:03:05.856Z,31.64
2018-07-15T01:04:05.910Z,30.49
2018-07-15T01:05:58.907Z,29.82
2018-07-15T01:06:58.965Z,28.77
2018-07-15T01:08:51.965Z,28.09
2018-07-15T01:09:52.023Z,27.42
2018-07-15T01:11:45.016Z,26.65
2018-07-15T01:12:45.079Z,25.89
2018-07-15T01:14:38.078Z,25.20
2018-07-15T01:15:38.136Z,24.82
2018-07-15T01:17:31.136Z,24.84
2018-07-15T01:18:31.195Z,24.07
2018-07-15T01:20:24.188Z,23.19
2018-07-15T01:21:24.249Z,23.48
2018-07-15T01:23:17.249Z,22.91
2018-07-15T01:24:17.308Z,23.38
2018-07-15T01:26:10.301Z,22.52
2018-07-15T01:27:10.365Z,22.61
2018-07-15T01:29:03.881Z,21.08
2018-07-15T01:30:03.934Z,20.51
2018-07-15T01:31:56.923Z,20.70
2018-07-15T01:32:56.987Z,20.41
2018-07-15T01:34:50.029Z,20.22
2018-07-15T01:35:50.083Z,20.79
2018-07-15T01:37:43.097Z,20.12
2018-07-15T01:38:43.149Z,20.32
2018-07-15T01:40:36.138Z,20.21
2018-07-15T01:41:36.210Z,19.54
2018-07-15T01:43:29.205Z,18.96
2018-07-15T01:44:29.261Z,17.43
2018-07-15T01:46:22.260Z,18.20
2018-07-15T01:47:22.321Z,18.29
2018-07-15T01:49:15.319Z,17.43
2018-07-15T01:50:15.379Z,17.62
2018-07-15T01:52:08.374Z,17.24
2018-07-15T01:53:08.433Z,17.82
2018-07-15T01:55:01.436Z,17.53
2018-07-15T01:56:01.496Z,17.62
2018-07-15T01:57:54.520Z,17.62
2018-07-15T01:58:54.558Z,17.62
2018-07-15T02:00:47.553Z,17.05
2018-07-15T02:01:47.618Z,17.05
2018-07-15T02:03:40.617Z,17.05
2018-07-15T02:04:40.674Z,16.96
2018-07-15T02:06:33.663Z,16.96
2018-07-15T02:07:33.729Z,16.00
2018-07-15T02:09:26.730Z,15.42
2018-07-15T02:10:26.783Z,16.09
2018-07-15T02:12:19.774Z,16.19
2018-07-15T02:13:19.838Z,16.66
2018-07-15T02:15:12.839Z,16.76
2018-07-15T02:16:12.897Z,16.96
2018-07-15T02:18:05.912Z,16.86
2018-07-15T02:19:05.977Z,15.90
2018-07-15T02:20:58.976Z,16.19
2018-07-15T02:21:59.031Z,16.09
2018-07-15T02:23:52.050Z,16.57
2018-07-15T02:24:52.094Z,16.96
2018-07-15T02:26:45.087Z,16.96
2018-07-15T02:27:45.147Z,16.76
2018-07-15T02:29:38.660Z,15.90
2018-07-15T02:30:38.714Z,16.66
2018-07-15T02:32:31.706Z,15.90
2018-07-15T02:33:31.771Z,15.13
2018-07-15T02:35:24.768Z,15.22
2018-07-15T02:36:24.822Z,16.00
2018-07-15T02:38:17.828Z,15.03
2018-07-15T02:39:17.879Z,15.41
2018-07-15T02:41:10.881Z,15.51
2018-07-15T02:42:10.939Z,15.52
2018-07-15T02:44:03.989Z,15.13
2018-07-15T02:45:04.054Z,15.13
2018-07-15T02:46:57.049Z,15.61
2018-07-15T02:47:57.106Z,15.51
2018-07-15T02:49:50.107Z,15.22
2018-07-15T02:50:50.162Z,14.84
2018-07-15T02:52:43.152Z,15.52
2018-07-15T02:53:43.214Z,15.23
2018-07-15T02:55:36.213Z,15.23
2018-07-15T02:56:36.269Z,15.23
2018-07-15T02:58:29.260Z,14.94
2018-07-15T02:59:29.323Z,15.12
2018-07-15T03:01:22.320Z,14.55
2018-07-15T03:02:22.376Z,14.56
2018-07-15T03:04:15.371Z,14.36
2018-07-15T03:05:15.433Z,14.07
2018-07-15T03:07:08.426Z,14.26
2018-07-15T03:08:08.485Z,14.26
2018-07-15T03:10:01.497Z,13.88
2018-07-15T03:11:01.538Z,13.59
2018-07-15T03:12:54.548Z,13.98
2018-07-15T03:13:54.598Z,13.31
2018-07-15T03:15:47.599Z,12.63
2018-07-15T03:16:47.656Z,12.54
2018-07-15T03:18:40.649Z,11.96
2018-07-15T03:19:40.713Z,11.68
2018-07-15T03:21:33.715Z,11.87
2018-07-15T03:22:33.770Z,11.87
2018-07-15T03:24:26.757Z,11.96
2018-07-15T03:25:26.822Z,11.58
2018-07-15T03:27:19.820Z,11.77
2018-07-15T03:28:19.876Z,11.77
2018-07-15T03:30:13.382Z,11.39
2018-07-15T03:31:13.440Z,11.19
2018-07-15T03:33:06.446Z,11.10
2018-07-15T03:34:06.537Z,10.91
2018-07-15T03:35:59.500Z,10.62
2018-07-15T03:36:59.556Z,10.72
2018-07-15T03:38:52.548Z,10.43
2018-07-15T03:39:52.664Z,10.43
2018-07-15T03:41:45.615Z,11.10
2018-07-15T03:42:45.671Z,11.10
2018-07-15T03:44:38.661Z,10.72
2018-07-15T03:45:38.726Z,11.01
2018-07-15T03:47:31.727Z,10.62
2018-07-15T03:48:31.782Z,10.62
2018-07-15T03:50:24.781Z,10.82
2018-07-15T03:51:24.845Z,10.72
2018-07-15T03:53:17.873Z,10.43
2018-07-15T03:54:17.897Z,10.43
2018-07-15T03:56:10.894Z,10.91
2018-07-15T03:57:10.958Z,10.82
2018-07-15T03:59:03.954Z,10.72
2018-07-15T04:00:04.011Z,10.52
2018-07-15T04:01:57.029Z,10.43
2018-07-15T04:02:57.070Z,10.63
2018-07-15T04:04:50.064Z,10.53
2018-07-15T04:05:50.127Z,10.63
2018-07-15T04:07:43.131Z,10.81
2018-07-15T04:08:43.307Z,10.82
2018-07-15T04:10:36.194Z,10.91
2018-07-15T04:11:36.243Z,10.43
2018-07-15T04:13:29.250Z,10.63
2018-07-15T04:14:29.298Z,10.82
2018-07-15T04:16:22.296Z,10.82
2018-07-15T04:17:22.359Z,10.91
2018-07-15T04:19:15.360Z,10.72
2018-07-15T04:20:15.412Z,11.10
2018-07-15T04:22:08.410Z,10.72
2018-07-15T04:23:08.473Z,10.82
2018-07-15T04:25:01.482Z,10.63
2018-07-15T04:26:01.538Z,10.72
2018-07-15T04:27:54.542Z,10.63
2018-07-15T04:28:54.600Z,10.82
2018-07-15T04:30:47.591Z,10.72
2018-07-15T04:31:47.653Z,10.43
2018-07-15T04:33:40.650Z,10.72
2018-07-15T04:34:40.710Z,10.24
2018-07-15T04:36:33.724Z,10.43
2018-07-15T04:37:33.768Z,10.91
2018-07-15T04:39:26.763Z,10.82
2018-07-15T04:40:26.822Z,10.82
2018-07-15T04:42:19.871Z,10.91
2018-07-15T04:43:19.934Z,10.63
2018-07-15T04:45:12.935Z,10.43
2018-07-15T04:46:12.992Z,10.53
2018-07-15T04:48:06.008Z,10.43
2018-07-15T04:49:06.046Z,10.72
2018-07-15T04:50:59.043Z,10.53
2018-07-15T04:51:59.098Z,10.63
2018-07-15T04:53:52.095Z,10.24
2018-07-15T04:54:52.151Z,10.34
2018-07-15T04:56:45.704Z,10.53
2018-07-15T04:57:45.718Z,10.72
2018-07-15T04:59:38.716Z,10.34
2018-07-15T05:00:38.770Z,9.95
2018-07-15T05:02:31.760Z,9.77
2018-07-15T05:03:31.824Z,10.05
2018-07-15T05:05:24.822Z,10.72
2018-07-15T05:06:24.905Z,10.44
2018-07-15T05:08:17.868Z,10.25
2018-07-15T05:09:17.932Z,10.44
2018-07-15T05:11:10.945Z,10.35
2018-07-15T05:12:10.984Z,10.53
2018-07-15T05:14:03.985Z,11.01
2018-07-15T05:15:04.048Z,9.96
2018-07-15T05:16:57.044Z,10.53
2018-07-15T05:17:57.100Z,10.53
2018-07-15T05:19:50.097Z,9.67
2018-07-15T05:20:50.153Z,10.25
2018-07-15T05:22:43.144Z,10.35
2018-07-15T05:23:43.210Z,10.44
2018-07-15T05:25:36.205Z,10.44
2018-07-15T05:26:36.261Z,10.63
2018-07-15T05:28:29.251Z,10.63
2018-07-15T05:29:29.318Z,10.82
2018-07-15T05:31:22.332Z,10.63
2018-07-15T05:32:22.366Z,10.72
2018-07-15T05:34:15.363Z,10.72
2018-07-15T05:35:15.429Z,10.92
2018-07-15T05:37:08.423Z,10.72
2018-07-15T05:38:08.480Z,11.01
2018-07-15T05:40:01.494Z,11.01
2018-07-15T05:41:01.543Z,11.59
2018-07-15T05:42:54.534Z,11.69
2018-07-15T05:43:54.595Z,11.02
2018-07-15T05:45:47.601Z,11.79
2018-07-15T05:46:47.659Z,11.21
2018-07-15T05:48:40.649Z,10.93
2018-07-15T05:49:40.711Z,11.21
2018-07-15T05:51:33.709Z,11.69
2018-07-15T05:52:33.764Z,11.30
2018-07-15T05:54:26.754Z,12.37
2018-07-15T05:55:26.819Z,11.51
2018-07-15T05:57:20.331Z,13.32
2018-07-15T05:58:20.385Z,13.32
2018-07-15T06:00:13.383Z,13.71
2018-07-15T06:01:13.441Z,13.81
2018-07-15T06:03:06.438Z,15.54
2018-07-15T06:04:06.498Z,14.77
2018-07-15T06:05:59.504Z,14.00
2018-07-15T06:11:03.717Z,16.60
2018-07-15T06:12:03.282Z,16.50
2018-07-15T06:13:57.714Z,22.08
2018-07-15T06:14:57.776Z,21.03
2018-07-15T06:16:50.773Z,24.98
2018-07-15T06:17:50.828Z,25.95
2018-07-15T06:19:43.845Z,30.29
2018-07-15T06:20:43.881Z,40.61
2018-07-15T06:22:36.898Z,65.17
2018-07-15T06:23:36.938Z,73.52
2018-07-15T06:25:29.937Z,75.34
2018-07-15T06:26:30.006Z,72.89
2018-07-15T06:28:23.010Z,66.82
2018-07-15T06:29:23.058Z,61.25
2018-07-15T06:31:16.053Z,54.91
2018-07-15T06:32:16.117Z,52.63
2018-07-15T06:34:09.124Z,49.07
2018-07-15T06:35:09.175Z,49.05
2018-07-15T06:37:02.196Z,49.66
2018-07-15T06:38:02.259Z,47.56
2018-07-15T06:39:55.259Z,47.73
2018-07-15T06:40:55.330Z,47.22
2018-07-15T06:42:48.346Z,46.24
2018-07-15T06:43:48.411Z,46.95
2018-07-15T06:45:41.420Z,46.17
2018-07-15T06:46:41.493Z,45.31
2018-07-15T06:48:34.502Z,44.28
2018-07-15T06:49:34.572Z,43.20
2018-07-15T06:51:27.583Z,43.49
2018-07-15T06:52:27.656Z,43.05
2018-07-15T06:54:20.674Z,41.03
2018-07-15T06:55:20.739Z,39.98
2018-07-15T06:57:13.752Z,39.94
2018-07-15T06:58:13.846Z,40.82
2018-07-15T07:00:06.848Z,40.14
2018-07-15T07:01:06.915Z,39.66
2018-07-15T07:02:59.933Z,37.76
2018-07-15T07:04:00.005Z,37.50
2018-07-15T07:05:53.016Z,38.72
2018-07-15T07:06:53.092Z,37.56
2018-07-15T07:08:46.110Z,36.91
2018-07-15T07:09:46.178Z,36.30
2018-07-15T07:11:39.205Z,34.97
2018-07-15T07:12:39.278Z,35.44
2018-07-15T07:14:32.325Z,35.05
2018-07-15T07:15:32.376Z,35.77
2018-07-15T07:17:25.388Z,34.23
2018-07-15T07:18:25.492Z,33.64
2018-07-15T07:20:18.489Z,33.82
2018-07-15T07:21:18.563Z,34.13
2018-07-15T07:23:11.599Z,36.13
2018-07-15T07:24:11.660Z,34.80
2018-07-15T07:26:04.682Z,33.82
2018-07-15T07:27:04.755Z,33.34
2018-07-15T07:28:57.870Z,32.65
2018-07-15T07:29:57.869Z,34.30
2018-07-15T07:31:50.873Z,35.44
2018-07-15T07:32:50.966Z,35.42
2018-07-15T07:34:44.005Z,35.58
2018-07-15T07:35:44.067Z,35.99
2018-07-15T07:37:37.084Z,35.85
2018-07-15T07:38:37.166Z,34.78
2018-07-15T07:40:30.175Z,34.44
2018-07-15T07:41:30.261Z,34.28
2018-07-15T07:43:23.276Z,34.10
2018-07-15T07:44:23.355Z,34.23
2018-07-15T07:46:16.382Z,35.62
2018-07-15T07:47:16.463Z,35.39
2018-07-15T07:49:09.488Z,38.65
2018-07-15T07:50:09.572Z,37.88
2018-07-15T07:52:03.097Z,36.30
2018-07-15T07:53:03.168Z,35.88
2018-07-15T07:54:56.211Z,36.01
2018-07-15T07:55:56.272Z,34.08
2018-07-15T07:57:49.314Z,33.91
2018-07-15T07:58:49.390Z,33.77
2018-07-15T08:00:42.422Z,35.10
2018-07-15T08:01:42.491Z,35.13
2018-07-15T08:03:35.509Z,34.06
2018-07-15T08:04:35.587Z,34.18
2018-07-15T08:06:28.625Z,32.82
2018-07-15T08:07:28.721Z,33.62
2018-07-15T08:09:21.723Z,31.80
2018-07-15T08:10:21.798Z,31.54
2018-07-15T08:12:14.827Z,31.79
2018-07-15T08:13:14.900Z,32.89
2018-07-15T08:15:07.998Z,31.42
2018-07-15T08:16:08.005Z,31.97
2018-07-15T08:18:01.042Z,31.39
2018-07-15T08:19:01.110Z,31.03
2018-07-15T08:20:54.158Z,31.09
2018-07-15T08:21:54.224Z,31.41
2018-07-15T08:23:47.242Z,30.17
2018-07-15T08:24:47.321Z,28.89
2018-07-15T08:26:40.461Z,29.38
2018-07-15T08:27:40.432Z,29.30
2018-07-15T08:29:33.483Z,28.61
2018-07-15T08:30:33.541Z,28.11
2018-07-15T08:32:26.576Z,29.10
2018-07-15T08:33:26.649Z,29.10
2018-07-15T08:35:19.680Z,28.80
2018-07-15T08:36:19.755Z,29.10
2018-07-15T08:38:12.784Z,28.41
2018-07-15T08:39:12.866Z,27.81
2018-07-15T08:41:05.904Z,30.88
2018-07-15T08:42:05.980Z,29.39
2018-07-15T08:43:59.014Z,29.30
2018-07-15T08:44:59.096Z,28.51
2018-07-15T08:46:52.133Z,27.83
2018-07-15T08:47:52.214Z,27.94
2018-07-15T08:49:45.233Z,27.38
2018-07-15T08:50:45.313Z,28.58
2018-07-15T08:52:38.855Z,29.86
2018-07-15T08:53:38.928Z,29.85
2018-07-15T08:55:31.966Z,29.16
2018-07-15T08:56:32.062Z,30.10
2018-07-15T08:58:25.066Z,29.06
2018-07-15T08:59:25.149Z,28.20
2018-07-15T09:01:18.182Z,27.61
2018-07-15T09:02:18.923Z,27.82
2018-07-15T09:04:11.279Z,27.86
2018-07-15T09:05:11.373Z,27.47
2018-07-15T09:07:04.413Z,26.09
2018-07-15T09:08:04.496Z,25.40
2018-07-15T09:09:57.522Z,25.59
2018-07-15T09:10:57.605Z,25.31
2018-07-15T09:12:50.645Z,25.93
2018-07-15T09:13:50.720Z,26.23
2018-07-15T09:15:43.752Z,25.27
2018-07-15T09:16:43.833Z,25.82
2018-07-15T09:18:36.870Z,26.77
2018-07-15T09:19:36.944Z,28.95
2018-07-15T09:21:29.974Z,28.36
2018-07-15T09:22:30.058Z,27.28
2018-07-15T09:24:23.089Z,26.54
2018-07-15T09:25:23.166Z,26.45
2018-07-15T09:27:16.201Z,25.54
2018-07-15T09:28:16.278Z,25.98
2018-07-15T09:30:09.304Z,28.05
2018-07-15T09:31:09.399Z,28.02
2018-07-15T09:33:02.429Z,28.00
2018-07-15T09:34:02.508Z,28.68
2018-07-15T09:35:55.530Z,30.37
2018-07-15T09:36:55.613Z,31.73
2018-07-15T09:38:48.652Z,34.31
2018-07-15T09:39:49.019Z,34.34
2018-07-15T09:41:41.745Z,36.47
2018-07-15T09:42:41.826Z,37.83
2018-07-15T09:44:34.854Z,36.66
2018-07-15T09:45:34.928Z,37.04
2018-07-15T09:47:27.944Z,37.52
2018-07-15T09:48:28.023Z,37.62
2018-07-15T09:50:21.188Z,38.91
2018-07-15T09:51:21.120Z,41.63
2018-07-15T09:53:14.139Z,41.42
2018-07-15T09:54:14.207Z,41.42
2018-07-15T09:56:07.242Z,41.26
2018-07-15T09:57:07.294Z,40.09
2018-07-15T09:59:00.312Z,39.43
2018-07-15T10:00:00.388Z,38.75
2018-07-15T10:01:53.402Z,40.29
2018-07-15T10:02:53.582Z,39.22
2018-07-15T10:04:46.591Z,39.47
2018-07-15T10:05:46.568Z,39.36
2018-07-15T10:07:39.601Z,40.48
2018-07-15T10:08:39.651Z,41.28
2018-07-15T10:10:32.683Z,40.01
2018-07-15T10:11:32.733Z,40.50
2018-07-15T10:13:25.748Z,40.13
2018-07-15T10:14:25.814Z,40.03
2018-07-15T10:16:18.822Z,38.98
2018-07-15T10:17:18.891Z,38.79
2018-07-15T10:19:11.907Z,38.09
2018-07-15T10:20:11.981Z,39.06
2018-07-15T10:22:05.004Z,38.75
2018-07-15T10:23:05.068Z,40.09
2018-07-15T10:24:58.083Z,40.60
2018-07-15T10:25:58.145Z,39.22
2018-07-15T10:27:51.156Z,38.75
2018-07-15T10:28:51.229Z,38.46
2018-07-15T10:30:44.240Z,38.75
2018-07-15T10:31:44.305Z,38.34
2018-07-15T10:33:37.327Z,40.58
2018-07-15T10:34:37.383Z,38.83
2018-07-15T10:36:30.402Z,38.73
2018-07-15T10:37:30.465Z,40.36
2018-07-15T10:39:23.480Z,40.48
2018-07-15T10:40:23.546Z,39.41
2018-07-15T10:42:16.550Z,38.75
2018-07-15T10:43:16.622Z,37.59
2018-07-15T10:45:09.632Z,38.75
2018-07-15T10:46:09.733Z,37.10
2018-07-15T10:48:02.695Z,37.49
2018-07-15T10:49:02.767Z,37.10
2018-07-15T10:50:55.783Z,38.39
2018-07-15T10:51:55.847Z,38.56
2018-07-15T10:53:48.852Z,39.72
2018-07-15T10:54:48.924Z,37.96
2018-07-15T10:56:41.942Z,40.39
2018-07-15T10:57:41.999Z,39.32
2018-07-15T10:59:35.012Z,39.90
2018-07-15T11:00:35.075Z,39.72
2018-07-15T11:02:28.093Z,38.07
2018-07-15T11:03:28.150Z,37.59
2018-07-15T11:05:21.167Z,38.06
2018-07-15T11:06:21.286Z,38.85
2018-07-15T11:08:14.237Z,39.24
2018-07-15T11:09:14.307Z,38.95
2018-07-15T11:11:07.343Z,40.52
2018-07-15T11:12:07.385Z,39.65
2018-07-15T11:14:00.389Z,38.85
2018-07-15T11:15:00.459Z,41.39
2018-07-15T11:16:53.472Z,40.72
2018-07-15T11:17:53.538Z,40.72
2018-07-15T11:19:46.558Z,38.15
2018-07-15T11:20:46.622Z,37.96
2018-07-15T11:22:39.629Z,39.41
2018-07-15T11:23:39.698Z,40.00
2018-07-15T11:25:32.710Z,40.48
2018-07-15T11:26:32.772Z,41.16
2018-07-15T11:28:25.779Z,40.48
2018-07-15T11:29:25.843Z,40.39
2018-07-15T11:31:18.922Z,39.61
2018-07-15T11:32:18.959Z,40.09
2018-07-15T11:34:12.197Z,41.84
2018-07-15T11:35:12.032Z,40.41
2018-07-15T11:37:05.160Z,38.27
2018-07-15T11:38:05.113Z,39.72
2018-07-15T11:39:58.336Z,37.60
2018-07-15T11:40:58.180Z,38.09
2018-07-15T11:42:51.279Z,39.75
2018-07-15T11:43:51.265Z,39.75
2018-07-15T11:45:44.422Z,38.67
2018-07-15T11:46:44.690Z,38.57
2018-07-15T11:48:37.894Z,38.56
2018-07-15T11:49:37.919Z,38.37
2018-07-15T11:51:30.948Z,39.72
2018-07-15T11:52:31.012Z,40.11
2018-07-15T11:54:24.082Z,39.04
2018-07-15T11:55:24.086Z,38.46
2018-07-15T11:57:17.098Z,38.85
2018-07-15T11:58:17.160Z,38.77
2018-07-15T12:00:10.680Z,37.99
2018-07-15T12:01:10.741Z,38.57
2018-07-15T12:03:03.747Z,37.60
2018-07-15T12:04:03.815Z,37.12
2018-07-15T12:05:56.822Z,38.29
2018-07-15T12:06:56.884Z,38.96
2018-07-15T12:08:49.888Z,38.67
2018-07-15T12:09:49.959Z,39.06
2018-07-15T12:11:42.970Z,39.94
2018-07-15T12:12:43.034Z,40.52
2018-07-15T12:14:36.068Z,42.46
2018-07-15T12:15:36.116Z,41.10
2018-07-15T12:17:29.122Z,41.51
2018-07-15T12:18:29.188Z,40.06
2018-07-15T12:20:22.229Z,39.96
2018-07-15T12:21:22.260Z,39.76
2018-07-15T12:23:15.267Z,38.98
2018-07-15T12:24:15.331Z,38.98
2018-07-15T12:26:08.346Z,38.77
2018-07-15T12:27:08.408Z,41.20
2018-07-15T12:29:01.421Z,38.95
2018-07-15T12:30:01.491Z,39.72
2018-07-15T12:31:54.501Z,41.47
2018-07-15T12:32:54.566Z,40.99
2018-07-15T12:34:47.570Z,40.79
2018-07-15T12:35:47.637Z,39.43
2018-07-15T12:37:40.653Z,37.41
2018-07-15T12:38:40.710Z,37.99
2018-07-15T12:40:33.740Z,37.39
2018-07-15T12:41:33.786Z,38.56
2018-07-15T12:43:26.822Z,41.18
2018-07-15T12:44:26.857Z,38.56
2018-07-15T12:46:19.864Z,39.75
2018-07-15T12:47:19.928Z,39.75
2018-07-15T12:49:12.935Z,39.75
2018-07-15T12:50:13.004Z,41.10
2018-07-15T12:52:06.074Z,40.23
2018-07-15T12:53:06.077Z,39.55
2018-07-15T12:54:59.078Z,40.52
2018-07-15T12:55:59.148Z,39.75
2018-07-15T12:57:52.160Z,39.26
2018-07-15T12:58:52.221Z,38.77
2018-07-15T13:00:45.734Z,41.49
2018-07-15T13:01:45.800Z,39.75
2018-07-15T13:03:38.815Z,39.84
2018-07-15T13:04:38.875Z,38.48
2018-07-15T13:06:31.884Z,37.02
2018-07-15T13:07:31.952Z,37.99
2018-07-15T13:09:24.951Z,39.75
2018-07-15T13:10:25.020Z,37.90
2018-07-15T13:12:18.031Z,38.48
2018-07-15T13:13:18.093Z,37.51
2018-07-15T13:15:11.103Z,38.77
2018-07-15T13:16:11.212Z,39.45
2018-07-15T13:18:04.187Z,38.67
2018-07-15T13:19:04.247Z,38.57
2018-07-15T13:20:57.260Z,38.50
2018-07-15T13:21:57.333Z,37.14
2018-07-15T13:23:50.337Z,36.05
2018-07-15T13:24:50.390Z,36.63
2018-07-15T13:26:43.400Z,36.44
2018-07-15T13:27:43.469Z,36.54
2018-07-15T13:29:36.519Z,38.57
2018-07-15T13:30:36.543Z,37.24
2018-07-15T13:32:29.554Z,35.97
2018-07-15T13:33:29.616Z,35.58
2018-07-15T13:35:22.621Z,36.15
2018-07-15T13:36:22.688Z,37.41
2018-07-15T13:38:15.701Z,36.44
2018-07-15T13:39:15.761Z,36.94
2018-07-15T13:41:08.768Z,35.97
2018-07-15T13:42:08.835Z,35.49
2018-07-15T13:44:01.845Z,36.07
2018-07-15T13:45:01.905Z,35.49
2018-07-15T13:46:54.908Z,35.68
2018-07-15T13:47:54.979Z,35.86
2018-07-15T13:49:47.988Z,35.17
2018-07-15T13:50:48.050Z,34.52
2018-07-15T13:52:41.063Z,34.30
2018-07-15T13:53:41.126Z,34.12
2018-07-15T13:55:34.144Z,34.40
2018-07-15T13:56:34.207Z,34.79
2018-07-15T13:58:27.269Z,33.62
2018-07-15T13:59:27.285Z,33.72
2018-07-15T14:01:20.798Z,33.72
2018-07-15T14:02:20.867Z,33.91
2018-07-15T14:04:13.948Z,34.79
2018-07-15T14:05:13.940Z,34.98
2018-07-15T14:07:06.943Z,37.22
2018-07-15T14:08:07.012Z,37.12
2018-07-15T14:10:00.030Z,36.83
2018-07-15T14:11:00.086Z,35.86
2018-07-15T14:12:53.095Z,36.34
2018-07-15T14:13:53.165Z,36.63
2018-07-15T14:15:46.171Z,36.54
2018-07-15T14:16:46.234Z,35.76
2018-07-15T14:18:39.263Z,35.57
2018-07-15T14:19:39.308Z,37.60
2018-07-15T14:21:32.381Z,37.12
2018-07-15T14:22:32.381Z,36.54
2018-07-15T14:24:25.395Z,36.34
2018-07-15T14:25:25.457Z,35.58
2018-07-15T14:27:18.462Z,36.16
2018-07-15T14:28:18.531Z,36.26
2018-07-15T14:30:11.564Z,34.90
2018-07-15T14:31:11.626Z,34.03
2018-07-15T14:33:04.633Z,34.70
2018-07-15T14:34:04.701Z,34.70
2018-07-15T14:35:57.718Z,35.29
2018-07-15T14:36:57.784Z,35.58
2018-07-15T14:38:50.779Z,35.97
2018-07-15T14:39:50.844Z,35.97
2018-07-15T14:41:43.859Z,36.46
2018-07-15T14:42:43.921Z,35.58
2018-07-15T14:44:36.948Z,37.52
2018-07-15T14:45:37.948Z,38.40
2018-07-15T14:47:29.997Z,35.86
2018-07-15T14:48:30.064Z,35.68
2018-07-15T14:50:23.072Z,35.88
2018-07-15T14:51:23.141Z,35.97
2018-07-15T14:53:16.146Z,35.58
2018-07-15T14:54:16.209Z,35.49
2018-07-15T14:56:09.284Z,36.65
2018-07-15T14:57:09.274Z,36.65
2018-07-15T14:59:02.287Z,36.46
2018-07-15T15:00:02.380Z,36.55
2018-07-15T15:01:55.420Z,37.14
2018-07-15T15:02:55.428Z,37.62
2018-07-15T15:04:48.459Z,35.58
2018-07-15T15:05:48.501Z,35.68
2018-07-15T15:07:41.508Z,35.78
2018-07-15T15:08:41.583Z,36.44
2018-07-15T15:10:34.589Z,38.11
2018-07-15T15:11:34.651Z,38.60
2018-07-15T15:13:27.657Z,37.24
2018-07-15T15:14:27.740Z,38.79
2018-07-15T15:16:20.737Z,36.36
2018-07-15T15:17:20.802Z,36.65
2018-07-15T15:19:13.849Z,36.26
2018-07-15T15:20:13.874Z,36.46
2018-07-15T15:22:06.891Z,35.19
2018-07-15T15:23:06.950Z,35.10
2018-07-15T15:24:59.955Z,35.68
2018-07-15T15:26:00.028Z,35.29
2018-07-15T15:27:53.028Z,35.49
2018-07-15T15:28:53.130Z,34.42
2018-07-15T15:30:46.107Z,34.12
2018-07-15T15:31:46.172Z,34.42
2018-07-15T15:33:39.297Z,34.42
2018-07-15T15:34:39.273Z,35.10
2018-07-15T15:36:32.270Z,34.88
2018-07-15T15:37:32.331Z,36.05
2018-07-15T15:39:25.350Z,36.73
2018-07-15T15:40:25.418Z,37.14
2018-07-15T15:42:18.467Z,36.93
2018-07-15T15:43:18.492Z,35.78
2018-07-15T15:45:11.497Z,36.36
2018-07-15T15:46:11.566Z,37.04
2018-07-15T15:48:04.575Z,37.04
2018-07-15T15:49:04.637Z,37.24
2018-07-15T15:50:57.642Z,38.89
2018-07-15T15:51:57.810Z,38.98
2018-07-15T15:53:50.733Z,38.79
2018-07-15T15:54:50.797Z,38.31
2018-07-15T15:56:43.879Z,38.31
2018-07-15T15:57:43.887Z,37.43
2018-07-15T15:59:36.920Z,37.43
2018-07-15T16:00:36.962Z,38.96
2018-07-15T16:02:29.982Z,38.48
2018-07-15T16:03:30.125Z,38.67
2018-07-15T16:05:23.046Z,38.39
2018-07-15T16:06:23.126Z,38.48
2018-07-15T16:08:16.125Z,37.92
2018-07-15T16:09:16.189Z,37.12
2018-07-15T16:11:09.198Z,36.83
2018-07-15T16:12:09.260Z,36.34
2018-07-15T16:14:02.268Z,37.12
2018-07-15T16:15:02.330Z,37.41
2018-07-15T16:16:55.338Z,37.60
2018-07-15T16:17:55.404Z,37.41
2018-07-15T16:19:48.413Z,37.12
2018-07-15T16:20:48.477Z,37.60
2018-07-15T16:22:41.488Z,38.27
2018-07-15T16:23:41.551Z,38.17
2018-07-15T16:25:34.552Z,38.67
2018-07-15T16:26:34.625Z,39.16
2018-07-15T16:28:27.629Z,38.77
2018-07-15T16:29:27.691Z,39.94
2018-07-15T16:31:20.694Z,38.96
2018-07-15T16:32:20.764Z,39.36
2018-07-15T16:34:13.874Z,39.75
2018-07-15T16:35:13.832Z,39.75
2018-07-15T16:37:06.866Z,39.36
2018-07-15T16:38:06.935Z,39.24
2018-07-15T16:39:59.944Z,39.92
2018-07-15T16:41:00.061Z,40.01
2018-07-15T16:42:53.018Z,39.94
2018-07-15T16:43:53.092Z,39.36
2018-07-15T16:45:46.089Z,39.94
2018-07-15T16:46:46.153Z,39.94
2018-07-15T16:48:39.180Z,39.75
2018-07-15T16:49:39.271Z,39.26
2018-07-15T16:51:32.255Z,39.84
2018-07-15T16:52:32.324Z,39.55
2018-07-15T16:54:25.333Z,39.55
2018-07-15T16:55:25.396Z,39.45
2018-07-15T16:57:18.400Z,40.03
2018-07-15T16:58:18.464Z,39.65
2018-07-15T17:00:11.475Z,40.42
2018-07-15T17:01:11.539Z,39.84
2018-07-15T17:03:04.626Z,40.01
2018-07-15T17:04:04.630Z,39.94
2018-07-15T17:05:57.661Z,39.53
2018-07-15T17:06:57.756Z,39.82
2018-07-15T17:08:50.789Z,39.70
2018-07-15T17:09:50.785Z,40.89
2018-07-15T17:11:43.806Z,39.72
2018-07-15T17:12:43.858Z,39.41
2018-07-15T17:14:36.877Z,40.00
2018-07-15T17:15:36.952Z,40.11
2018-07-15T17:17:29.945Z,40.19
2018-07-15T17:18:30.014Z,40.19
2018-07-15T17:20:23.021Z,39.70
2018-07-15T17:21:23.089Z,39.80
2018-07-15T17:23:16.093Z,40.09
2018-07-15T17:24:16.165Z,39.43
2018-07-15T17:26:09.172Z,39.41
2018-07-15T17:27:09.233Z,39.32
2018-07-15T17:29:02.238Z,39.80
2018-07-15T17:30:02.304Z,40.09
2018-07-15T17:31:55.318Z,40.09
2018-07-15T17:32:55.375Z,40.00
2018-07-15T17:34:48.381Z,40.67
2018-07-15T17:35:48.446Z,40.39
2018-07-15T17:37:41.457Z,40.39
2018-07-15T17:38:41.519Z,40.97
2018-07-15T17:40:34.589Z,39.80
2018-07-15T17:41:34.593Z,40.29
2018-07-15T17:43:27.597Z,40.19
2018-07-15T17:44:27.666Z,40.09
2018-07-15T17:46:20.683Z,40.09
2018-07-15T17:47:20.735Z,40.39
2018-07-15T17:49:13.737Z,40.39
2018-07-15T17:50:13.809Z,40.39
2018-07-15T17:52:06.819Z,41.26
2018-07-15T17:53:06.919Z,40.46
2018-07-15T17:54:59.890Z,40.48
2018-07-15T17:55:59.952Z,40.39
2018-07-15T17:57:52.988Z,40.39
2018-07-15T17:58:53.084Z,40.39
2018-07-15T18:00:46.536Z,40.09
2018-07-15T18:01:46.601Z,40.17
2018-07-15T18:03:39.605Z,40.29
2018-07-15T18:04:39.818Z,40.36
2018-07-15T18:06:32.691Z,40.75
2018-07-15T18:07:32.750Z,42.60
2018-07-15T18:09:25.805Z,41.14
2018-07-15T18:10:25.829Z,41.53
2018-07-15T18:12:18.845Z,42.50
2018-07-15T18:13:18.901Z,42.50
2018-07-15T18:15:11.919Z,42.30
2018-07-15T18:16:12.022Z,42.69
2018-07-15T18:18:04.978Z,42.60
2018-07-15T18:19:05.044Z,42.69
2018-07-15T18:20:58.049Z,43.26
2018-07-15T18:21:58.116Z,43.06
2018-07-15T18:23:51.133Z,43.84
2018-07-15T18:24:51.194Z,43.64
2018-07-15T18:26:44.201Z,45.20
2018-07-15T18:27:44.270Z,45.29
2018-07-15T18:29:37.274Z,45.27
2018-07-15T18:30:37.341Z,46.53
2018-07-15T18:32:30.345Z,45.07
2018-07-15T18:33:30.503Z,44.98
2018-07-15T18:35:23.434Z,45.17
2018-07-15T18:36:23.504Z,44.98
2018-07-15T18:38:16.491Z,45.75